Terminal Aerodrome Forecast
Issued by NWS Goodland, KS

Home | Current Version | Previous Version | Text Only | Print | Product List | Glossary On
Versions: 1 2 3 4 5 6 7 8 9 10 11 12 13 14 15
000
FTUS43 KGLD 292320
TAFGLD
TAF
KGLD 292320Z 3000/3024 16025G35KT P6SM SCT040 BKN080
     FM300200 16020G30KT 4SM -TSRA BKN035CB
     FM300600 23012KT P6SM -SHRA SCT030 BKN080
     FM301000 23009KT 6SM BR SCT040
     FM301300 25006KT P6SM SCT040
     FM301900 20005KT P6SM FEW200=

USA.gov is the U.S. government's official web portal to all federal, state and local government web resources and services.